Time;durP1;ratioP1;P1;durP2;ratioP2;P2;SDS_P1;SDS_P2;PMS_P1;PMS_P2;Temp;Humidity;BMP_temperature;BMP_pressure;BME280_temperature;BME280_humidity;BME280_pressure;Samples;Min_cycle;Max_cycle;Signal;HPM_P1;HPM_P2
2022/08/08 00:00:17;;;;;;;2.50;2.40;;;24.10;40.30;;;;;;4978120;28;20571;-86
2022/08/08 00:03:03;;;;;;;2.63;2.13;;;24.10;40.30;;;;;;4962523;28;20574;-62
2022/08/08 00:05:59;;;;;;;2.30;2.10;;;24.10;40.20;;;;;;4981270;28;21045;-71
2022/08/08 00:09:03;;;;;;;2.00;1.90;;;24.10;40.20;;;;;;4974196;28;20490;-74
2022/08/08 00:11:40;;;;;;;1.97;1.87;;;24.10;40.30;;;;;;4989382;28;20464;-63
2022/08/08 00:14:26;;;;;;;2.57;2.30;;;24.10;40.30;;;;;;4979065;28;20512;-84
2022/08/08 00:17:07;;;;;;;2.10;2.00;;;24.10;40.30;;;;;;4992368;28;20470;-76
2022/08/08 00:19:49;;;;;;;1.97;1.87;;;24.00;40.30;;;;;;4978180;28;20467;-66
2022/08/08 00:22:23;;;;;;;2.90;1.93;;;24.10;40.30;;;;;;4977196;28;21221;-85
2022/08/08 00:24:55;;;;;;;2.40;2.23;;;24.10;40.30;;;;;;4973232;28;20502;-79
2022/08/08 00:27:21;;;;;;;2.30;2.20;;;24.00;40.20;;;;;;4991499;28;21072;-65
2022/08/08 00:30:01;;;;;;;2.00;1.90;;;24.10;40.30;;;;;;4984679;28;20550;-85
2022/08/08 00:32:36;;;;;;;2.13;2.03;;;24.00;40.20;;;;;;4983143;28;20469;-65
2022/08/08 00:35:19;;;;;;;2.17;2.00;;;24.10;40.30;;;;;;4984026;28;20552;-70
2022/08/08 00:38:06;;;;;;;1.87;1.77;;;24.10;40.30;;;;;;4981803;28;20484;-87
2022/08/08 00:40:38;;;;;;;2.13;2.03;;;24.10;40.30;;;;;;4975881;28;20492;-73
2022/08/08 00:43:28;;;;;;;2.03;1.93;;;24.00;40.20;;;;;;4988902;28;20477;-73
2022/08/08 00:46:00;;;;;;;2.23;2.13;;;24.10;40.20;;;;;;4978377;28;20526;-69
2022/08/08 00:48:44;;;;;;;2.40;2.30;;;24.10;40.30;;;;;;4984546;28;20872;-62
2022/08/08 00:51:30;;;;;;;1.90;1.80;;;24.10;40.30;;;;;;4977304;28;20468;-85
2022/08/08 00:54:26;;;;;;;2.10;2.00;;;24.10;40.30;;;;;;4980108;28;20475;-84
2022/08/08 00:57:27;;;;;;;2.20;2.10;;;24.00;40.20;;;;;;4975691;28;20506;-66
2022/08/08 01:00:07;;;;;;;2.27;2.17;;;24.00;40.20;;;;;;4988352;28;20472;-84
2022/08/08 01:02:52;;;;;;;2.10;2.00;;;24.00;40.20;;;;;;4977536;28;20489;-66
2022/08/08 01:05:45;;;;;;;2.20;2.10;;;24.00;40.20;;;;;;4978506;28;20451;-81
2022/08/08 01:08:46;;;;;;;2.20;2.10;;;24.00;40.20;;;;;;4980042;28;20475;-71
2022/08/08 01:11:54;;;;;;;1.97;1.87;;;24.00;40.20;;;;;;4978896;28;20491;-83
2022/08/08 01:14:58;;;;;;;3.00;2.20;;;24.00;40.20;;;;;;4987823;28;20479;-86
2022/08/08 01:17:59;;;;;;;2.33;2.23;;;24.00;40.20;;;;;;4995070;28;20493;-76
2022/08/08 01:21:02;;;;;;;2.30;2.17;;;24.00;40.20;;;;;;4993207;28;20598;-66
2022/08/08 01:23:37;;;;;;;2.10;2.00;;;24.00;40.20;;;;;;4990676;28;20463;-65
2022/08/08 01:26:24;;;;;;;2.43;2.33;;;24.00;40.20;;;;;;4990535;28;20487;-65
2022/08/08 01:29:07;;;;;;;2.27;2.17;;;24.00;40.20;;;;;;5000435;28;20473;-67
2022/08/08 01:32:00;;;;;;;2.20;2.10;;;24.00;40.20;;;;;;4993723;28;20460;-82
2022/08/08 01:35:10;;;;;;;1.87;1.77;;;24.00;40.20;;;;;;4995521;28;20504;-64
2022/08/08 01:38:05;;;;;;;2.23;2.13;;;24.00;40.10;;;;;;4987310;28;20976;-80
2022/08/08 01:40:44;;;;;;;2.00;1.90;;;24.00;40.10;;;;;;4995796;28;20556;-60
2022/08/08 01:43:09;;;;;;;1.97;1.87;;;24.00;40.20;;;;;;4995946;28;20991;-59
2022/08/08 01:45:38;;;;;;;2.03;1.90;;;24.00;40.20;;;;;;5001190;28;20468;-77
2022/08/08 01:48:34;;;;;;;2.10;2.00;;;24.00;40.20;;;;;;4989103;28;20230;-76
2022/08/08 01:51:33;;;;;;;2.23;2.13;;;24.00;40.20;;;;;;4993444;28;20467;-63
2022/08/08 01:54:05;;;;;;;2.20;2.10;;;24.00;40.20;;;;;;4995457;28;20464;-59
2022/08/08 01:57:10;;;;;;;2.07;1.97;;;24.00;40.20;;;;;;4990812;28;20461;-70
2022/08/08 01:59:57;;;;;;;2.10;2.00;;;24.00;40.20;;;;;;4998864;28;20464;-64
2022/08/08 02:02:53;;;;;;;2.07;1.97;;;24.00;40.30;;;;;;4990981;28;20526;-65
2022/08/08 02:05:50;;;;;;;2.30;2.20;;;24.00;40.20;;;;;;4996525;28;20587;-76
2022/08/08 02:08:20;;;;;;;2.37;2.27;;;24.00;40.30;;;;;;4993893;28;20468;-67
2022/08/08 02:11:09;;;;;;;2.23;2.13;;;24.00;40.20;;;;;;4994062;28;20469;-69
2022/08/08 02:14:03;;;;;;;2.10;2.00;;;24.00;40.20;;;;;;4991747;28;21094;-59
2022/08/08 02:16:51;;;;;;;2.23;2.13;;;24.00;40.20;;;;;;4997546;28;20484;-79
2022/08/08 02:19:45;;;;;;;1.90;1.80;;;24.00;40.20;;;;;;4991456;28;20509;-65
2022/08/08 02:22:33;;;;;;;2.20;2.10;;;24.00;40.20;;;;;;4990780;28;20481;-64
2022/08/08 02:25:08;;;;;;;2.20;2.10;;;24.00;40.20;;;;;;4991745;28;20555;-65
2022/08/08 02:27:41;;;;;;;2.20;2.10;;;24.00;40.20;;;;;;4990867;28;20542;-64
2022/08/08 02:30:15;;;;;;;2.27;2.17;;;24.00;40.50;;;;;;5002954;28;20538;-60
2022/08/08 02:33:11;;;;;;;2.50;2.30;;;24.00;40.20;;;;;;4995586;28;20541;-81
2022/08/08 02:35:57;;;;;;;2.33;2.23;;;24.00;40.20;;;;;;4994500;28;21061;-62
2022/08/08 02:39:07;;;;;;;2.13;2.03;;;24.00;40.20;;;;;;4996367;28;20519;-70
2022/08/08 02:41:54;;;;;;;2.20;2.00;;;24.00;40.20;;;;;;4969326;28;21519;-72
2022/08/08 02:44:35;;;;;;;2.30;2.20;;;24.00;40.20;;;;;;5002957;28;20556;-69
2022/08/08 02:47:19;;;;;;;2.30;2.20;;;24.00;40.20;;;;;;5000573;28;20654;-62
2022/08/08 02:50:02;;;;;;;2.40;2.30;;;24.00;40.20;;;;;;4998586;28;20544;-58
2022/08/08 02:52:36;;;;;;;2.47;2.27;;;24.00;40.20;;;;;;4992573;28;20486;-83
2022/08/08 02:55:10;;;;;;;2.10;2.00;;;24.00;40.30;;;;;;4996770;28;20460;-63
2022/08/08 02:57:39;;;;;;;2.10;2.00;;;24.00;40.20;;;;;;4996192;28;20478;-63
2022/08/08 03:00:45;;;;;;;2.43;2.33;;;24.00;40.20;;;;;;5002619;28;20552;-80
2022/08/08 03:03:26;;;;;;;2.30;2.20;;;24.00;40.20;;;;;;4993202;28;21104;-82
2022/08/08 03:06:14;;;;;;;2.10;2.00;;;24.00;40.30;;;;;;5011395;28;20920;-62
2022/08/08 03:09:04;;;;;;;2.30;2.10;;;24.00;40.20;;;;;;5001521;28;20475;-61
2022/08/08 03:12:14;;;;;;;2.27;2.17;;;24.00;40.30;;;;;;4997717;28;20467;-62
2022/08/08 03:14:45;;;;;;;2.40;2.30;;;24.00;40.20;;;;;;4984635;28;20482;-62
2022/08/08 03:17:17;;;;;;;2.43;2.33;;;24.00;40.20;;;;;;4994864;28;20467;-62
2022/08/08 03:20:09;;;;;;;2.23;2.13;;;24.00;40.20;;;;;;4993308;28;20467;-67
2022/08/08 03:22:55;;;;;;;2.63;2.43;;;24.00;40.20;;;;;;4998435;28;20499;-64
2022/08/08 03:25:25;;;;;;;2.40;2.30;;;24.00;40.20;;;;;;4995038;28;20821;-61
2022/08/08 03:28:01;;;;;;;2.70;2.60;;;24.00;40.30;;;;;;4995008;28;20575;-71
2022/08/08 03:30:27;;;;;;;2.00;1.90;;;24.00;40.20;;;;;;5004687;28;20481;-62
2022/08/08 03:35:40;;;;;;;2.63;2.53;;;24.00;40.20;;;;;;4997260;28;20242;-65
2022/08/08 03:38:06;;;;;;;2.33;2.23;;;24.00;40.20;;;;;;4995991;28;20621;-85
2022/08/08 03:40:32;;;;;;;2.43;2.23;;;24.00;40.20;;;;;;4993025;28;20464;-87
2022/08/08 03:42:58;;;;;;;2.40;2.30;;;24.00;40.20;;;;;;4998056;28;20529;-63
2022/08/08 03:45:26;;;;;;;2.20;2.10;;;24.00;40.20;;;;;;5002578;28;20954;-61
2022/08/08 03:48:02;;;;;;;2.30;2.20;;;24.00;41.00;;;;;;5005589;28;20978;-88
2022/08/08 03:50:29;;;;;;;2.20;2.10;;;24.00;40.20;;;;;;4993810;28;20581;-76
2022/08/08 03:52:55;;;;;;;2.33;2.23;;;24.00;40.20;;;;;;4997716;28;20490;-74
2022/08/08 03:55:22;;;;;;;2.33;2.23;;;24.00;40.20;;;;;;4994564;28;20456;-85
2022/08/08 03:57:50;;;;;;;2.73;2.53;;;24.00;40.80;;;;;;4989423;28;21206;-79
2022/08/08 04:00:18;;;;;;;2.30;2.20;;;24.00;40.20;;;;;;4991919;28;20461;-61
2022/08/08 04:03:03;;;;;;;2.10;2.00;;;24.00;40.20;;;;;;5005976;28;20485;-59
2022/08/08 04:05:31;;;;;;;2.70;2.60;;;24.00;40.20;;;;;;4994229;28;20509;-77
2022/08/08 04:07:59;;;;;;;2.30;2.20;;;24.00;40.20;;;;;;5002463;28;20464;-74
2022/08/08 04:10:27;;;;;;;3.00;2.80;;;24.00;40.20;;;;;;4995611;28;20468;-69
2022/08/08 04:12:53;;;;;;;3.00;2.80;;;24.00;40.20;;;;;;4956740;28;1052682;-64
2022/08/08 04:15:19;;;;;;;2.50;2.40;;;24.00;40.20;;;;;;4994033;28;20927;-59
2022/08/08 04:17:45;;;;;;;2.27;2.17;;;24.00;40.20;;;;;;5007329;28;20970;-72
2022/08/08 04:20:11;;;;;;;2.77;2.57;;;24.00;40.20;;;;;;4996556;28;20250;-64
2022/08/08 04:22:37;;;;;;;3.00;2.80;;;24.00;40.20;;;;;;5000283;28;20238;-70
2022/08/08 04:25:03;;;;;;;2.53;2.43;;;24.00;40.20;;;;;;4995887;28;20479;-85
2022/08/08 04:27:29;;;;;;;2.60;2.50;;;24.00;40.20;;;;;;4994399;28;20218;-69
2022/08/08 04:29:54;;;;;;;2.60;2.50;;;24.00;40.20;;;;;;4996595;28;20645;-62
2022/08/08 04:32:20;;;;;;;2.70;2.60;;;24.00;40.20;;;;;;5007383;28;20253;-60
2022/08/08 04:34:46;;;;;;;2.60;2.40;;;24.00;40.20;;;;;;5003189;28;20319;-71
2022/08/08 04:37:11;;;;;;;2.63;2.43;;;24.00;40.20;;;;;;4996429;28;20215;-60
2022/08/08 04:39:38;;;;;;;2.70;2.50;;;24.00;40.20;;;;;;5000042;28;20238;-63
2022/08/08 04:42:04;;;;;;;3.00;2.80;;;24.00;41.00;;;;;;4999974;28;20286;-63
2022/08/08 04:44:30;;;;;;;2.70;2.50;;;24.00;40.20;;;;;;4996364;28;20464;-63
2022/08/08 04:46:55;;;;;;;2.40;2.30;;;24.00;40.20;;;;;;4998025;28;20318;-84
2022/08/08 04:49:21;;;;;;;2.33;2.23;;;24.00;40.20;;;;;;5005087;28;20222;-64
2022/08/08 04:51:46;;;;;;;2.40;2.30;;;24.00;40.20;;;;;;4997021;28;20219;-62
2022/08/08 04:54:12;;;;;;;2.83;2.63;;;24.00;40.20;;;;;;4997268;28;20424;-72
2022/08/08 04:56:37;;;;;;;2.90;2.70;;;24.00;40.90;;;;;;4993314;28;20249;-60
2022/08/08 04:59:03;;;;;;;3.27;3.07;;;24.00;40.10;;;;;;4991965;28;20231;-59
2022/08/08 05:01:29;;;;;;;2.20;2.10;;;24.00;40.10;;;;;;4990799;28;20356;-70
2022/08/08 05:03:55;;;;;;;2.60;2.50;;;24.00;40.10;;;;;;4998279;28;20238;-66
2022/08/08 05:06:20;;;;;;;2.50;2.40;;;24.00;40.10;;;;;;4996284;28;20218;-69
2022/08/08 05:08:46;;;;;;;2.83;2.50;;;24.00;40.10;;;;;;4997418;28;20834;-65
2022/08/08 05:11:12;;;;;;;3.00;2.60;;;24.10;40.10;;;;;;4989480;28;20223;-64
2022/08/08 05:13:42;;;;;;;2.97;2.80;;;24.10;40.10;;;;;;4996668;28;20542;-85
2022/08/08 05:16:09;;;;;;;2.70;2.50;;;24.10;40.00;;;;;;4993039;28;20468;-60
2022/08/08 05:18:38;;;;;;;3.40;3.20;;;24.10;40.00;;;;;;5003936;28;20468;-73
2022/08/08 05:21:04;;;;;;;2.33;2.23;;;24.20;40.00;;;;;;4996509;28;20612;-64
2022/08/08 05:23:30;;;;;;;2.63;2.47;;;24.20;40.00;;;;;;4995136;28;20987;-63
2022/08/08 05:25:57;;;;;;;2.80;2.70;;;24.20;40.00;;;;;;4996036;28;20456;-64
2022/08/08 05:28:22;;;;;;;2.70;2.60;;;24.20;40.00;;;;;;4992987;28;20539;-64
2022/08/08 05:30:48;;;;;;;2.40;2.30;;;24.20;40.00;;;;;;4992677;28;20475;-63
2022/08/08 05:33:14;;;;;;;2.80;2.63;;;24.20;40.10;;;;;;4998188;28;20579;-60
2022/08/08 05:35:44;;;;;;;2.57;2.47;;;24.20;40.10;;;;;;4999741;28;20234;-66
2022/08/08 05:38:16;;;;;;;2.60;2.50;;;24.20;40.10;;;;;;4998154;28;20453;-60
2022/08/08 05:40:45;;;;;;;3.17;2.97;;;24.20;40.10;;;;;;4989326;28;20468;-66
2022/08/08 05:43:19;;;;;;;2.80;2.60;;;24.20;40.10;;;;;;4993093;28;21128;-62
2022/08/08 05:45:45;;;;;;;2.77;2.67;;;24.20;40.10;;;;;;4995763;28;20456;-73
2022/08/08 05:48:11;;;;;;;2.73;2.53;;;24.20;40.10;;;;;;4994861;28;20581;-75
2022/08/08 05:50:38;;;;;;;2.80;2.70;;;24.20;40.10;;;;;;5011809;28;20902;-69
2022/08/08 05:53:04;;;;;;;2.87;2.67;;;24.20;40.10;;;;;;4984119;28;20230;-73
2022/08/08 05:55:33;;;;;;;2.50;2.40;;;24.20;40.10;;;;;;4982675;28;20562;-73
2022/08/08 05:57:59;;;;;;;3.30;3.10;;;24.20;40.10;;;;;;4991910;28;20305;-67
2022/08/08 06:00:31;;;;;;;2.60;2.40;;;24.20;40.20;;;;;;5009064;28;20824;-68
2022/08/08 06:03:10;;;;;;;2.80;2.60;;;24.10;40.10;;;;;;4990347;28;20538;-69
2022/08/08 06:05:59;;;;;;;3.40;3.10;;;24.10;40.00;;;;;;4999107;28;20480;-66
2022/08/08 06:08:42;;;;;;;3.50;3.30;;;24.20;40.00;;;;;;4986439;28;20488;-64
2022/08/08 06:11:08;;;;;;;3.10;2.90;;;24.20;40.00;;;;;;4997293;28;20464;-65
2022/08/08 06:13:34;;;;;;;5.77;3.50;;;24.20;40.00;;;;;;4994089;28;20519;-66
2022/08/08 06:15:59;;;;;;;2.73;2.63;;;24.20;40.00;;;;;;4986364;28;20461;-71
2022/08/08 06:18:28;;;;;;;3.47;3.27;;;24.20;40.00;;;;;;4990344;28;20229;-66
2022/08/08 06:20:56;;;;;;;3.63;3.17;;;24.20;40.00;;;;;;5001157;28;20729;-63
2022/08/08 06:23:22;;;;;;;2.60;2.40;;;24.20;40.00;;;;;;4993404;28;20590;-62
2022/08/08 06:26:03;;;;;;;3.20;3.00;;;24.20;40.00;;;;;;4991792;28;20521;-64
2022/08/08 06:28:57;;;;;;;2.73;2.53;;;24.20;40.70;;;;;;4990676;28;20600;-68
2022/08/08 06:31:24;;;;;;;3.10;2.90;;;24.20;40.10;;;;;;4991377;28;20460;-61
2022/08/08 06:34:00;;;;;;;2.80;2.70;;;24.20;40.00;;;;;;5000064;28;20547;-60
2022/08/08 06:36:43;;;;;;;3.20;3.00;;;24.20;40.00;;;;;;4994243;28;21431;-63
2022/08/08 06:39:11;;;;;;;4.60;3.20;;;24.20;40.00;;;;;;4988554;28;20468;-64
2022/08/08 06:41:57;;;;;;;2.93;2.73;;;24.20;40.00;;;;;;4995381;28;21184;-69
2022/08/08 06:44:25;;;;;;;3.40;3.20;;;24.20;40.10;;;;;;4993495;28;20521;-61
2022/08/08 06:46:51;;;;;;;3.23;3.07;;;24.20;40.00;;;;;;4993633;28;20827;-62
2022/08/08 06:49:18;;;;;;;3.40;3.10;;;24.20;40.00;;;;;;4995845;28;22602;-70
2022/08/08 06:51:43;;;;;;;3.20;3.00;;;24.20;40.00;;;;;;5000447;28;20448;-71
2022/08/08 06:54:10;;;;;;;2.43;2.33;;;24.20;40.00;;;;;;4992799;28;20478;-70
2022/08/08 06:56:36;;;;;;;3.80;3.20;;;24.20;40.00;;;;;;4996550;28;20493;-65
2022/08/08 06:59:02;;;;;;;3.27;2.97;;;24.20;40.00;;;;;;4992222;28;20488;-60
2022/08/08 07:01:33;;;;;;;3.30;3.10;;;24.20;40.00;;;;;;4990641;28;20227;-64
2022/08/08 07:04:14;;;;;;;2.90;2.70;;;24.20;40.00;;;;;;4992142;28;20479;-69
2022/08/08 07:06:44;;;;;;;2.80;2.60;;;24.20;40.00;;;;;;4994846;28;20515;-60
2022/08/08 07:09:17;;;;;;;2.87;2.77;;;24.20;40.00;;;;;;4996318;28;20514;-64
2022/08/08 07:11:50;;;;;;;3.90;3.10;;;24.20;40.00;;;;;;4989190;28;20459;-62
2022/08/08 07:14:20;;;;;;;5.43;3.40;;;24.20;40.00;;;;;;4997649;28;20620;-59
2022/08/08 07:17:05;;;;;;;3.50;3.20;;;24.20;40.00;;;;;;4997792;28;20560;-59
2022/08/08 07:19:34;;;;;;;4.03;3.00;;;24.20;40.00;;;;;;4999356;28;20888;-65
2022/08/08 07:22:03;;;;;;;3.67;3.37;;;24.20;40.00;;;;;;4995243;28;21214;-65
2022/08/08 07:24:44;;;;;;;4.50;3.37;;;24.20;40.00;;;;;;4997352;28;20550;-64
2022/08/08 07:27:15;;;;;;;3.50;3.07;;;24.20;40.00;;;;;;5008261;28;20467;-61
2022/08/08 07:29:41;;;;;;;4.53;3.17;;;24.20;40.10;;;;;;4990931;28;20459;-60
2022/08/08 07:32:09;;;;;;;4.90;3.13;;;24.20;40.00;;;;;;4994227;28;23039;-60
2022/08/08 07:34:35;;;;;;;3.70;3.40;;;24.20;40.00;;;;;;4999721;28;20246;-62
2022/08/08 07:37:03;;;;;;;3.53;3.10;;;24.20;40.00;;;;;;4992817;28;20473;-59
2022/08/08 07:39:30;;;;;;;3.53;3.20;;;24.20;40.00;;;;;;5007895;28;20471;-59
2022/08/08 07:41:59;;;;;;;4.20;3.90;;;24.20;40.10;;;;;;4996260;28;20468;-58
2022/08/08 07:44:26;;;;;;;4.10;3.70;;;24.20;40.10;;;;;;4995832;28;21432;-65
2022/08/08 07:46:53;;;;;;;3.83;3.53;;;24.20;40.10;;;;;;4999705;28;20472;-61
2022/08/08 07:49:19;;;;;;;4.00;3.70;;;24.20;40.10;;;;;;4975437;28;20488;-59
2022/08/08 07:51:45;;;;;;;6.27;4.97;;;24.20;40.10;;;;;;4974636;28;22373;-61
2022/08/08 07:54:39;;;;;;;4.93;4.63;;;24.20;40.00;;;;;;4985056;28;20982;-59
2022/08/08 07:57:17;;;;;;;4.50;3.87;;;24.20;39.90;;;;;;4993140;28;20238;-66
2022/08/08 07:59:55;;;;;;;5.00;4.50;;;24.20;39.90;;;;;;4997710;28;20461;-65
2022/08/08 08:02:24;;;;;;;5.03;3.93;;;24.10;39.80;;;;;;4994955;28;20473;-60
2022/08/08 08:04:54;;;;;;;5.13;4.83;;;24.10;39.80;;;;;;4994894;28;20480;-59
2022/08/08 08:07:25;;;;;;;7.67;5.10;;;24.20;39.70;;;;;;4997595;28;20539;-60
2022/08/08 08:09:51;;;;;;;6.33;5.00;;;24.20;39.60;;;;;;4999676;28;20456;-62
2022/08/08 08:12:19;;;;;;;8.27;5.00;;;24.20;39.50;;;;;;4998127;28;21073;-61
2022/08/08 08:15:01;;;;;;;5.47;4.97;;;24.10;39.20;;;;;;4996296;28;20250;-60
2022/08/08 08:17:27;;;;;;;4.87;4.50;;;24.20;39.30;;;;;;4990527;28;20459;-59
2022/08/08 08:19:57;;;;;;;4.83;4.53;;;24.10;39.20;;;;;;4992950;28;20466;-59
2022/08/08 08:22:23;;;;;;;4.70;4.30;;;24.10;39.30;;;;;;5000027;28;20542;-59
2022/08/08 08:24:48;;;;;;;4.90;4.60;;;24.10;39.30;;;;;;4999057;28;20950;-63
2022/08/08 08:27:15;;;;;;;5.70;4.50;;;24.10;39.40;;;;;;4989546;28;20228;-66
2022/08/08 08:29:40;;;;;;;5.30;4.87;;;24.10;39.50;;;;;;4976151;28;20224;-61
2022/08/08 08:32:07;;;;;;;5.07;4.50;;;24.10;39.50;;;;;;4977768;28;21536;-60
2022/08/08 08:34:34;;;;;;;5.30;5.00;;;24.10;39.60;;;;;;4982150;28;20220;-61
2022/08/08 08:37:02;;;;;;;5.43;4.80;;;24.10;39.60;;;;;;4992073;28;20518;-59
2022/08/08 08:39:27;;;;;;;5.07;4.77;;;24.10;39.60;;;;;;4980708;28;22655;-65
2022/08/08 08:41:53;;;;;;;4.73;4.40;;;24.10;39.70;;;;;;4974880;28;20465;-61
2022/08/08 08:44:20;;;;;;;5.43;4.93;;;24.10;39.80;;;;;;4974578;28;20223;-60
2022/08/08 08:46:46;;;;;;;4.87;4.57;;;24.10;39.80;;;;;;4972777;28;20305;-60
2022/08/08 08:49:13;;;;;;;4.77;4.33;;;24.10;39.80;;;;;;4975445;28;20484;-59
2022/08/08 08:51:42;;;;;;;4.73;4.33;;;24.10;39.80;;;;;;4976656;28;20465;-59
2022/08/08 08:54:09;;;;;;;4.67;4.37;;;24.10;40.70;;;;;;4986350;28;20489;-62
2022/08/08 08:56:36;;;;;;;4.63;4.30;;;24.10;39.90;;;;;;4973626;28;20579;-61
2022/08/08 08:59:04;;;;;;;4.70;4.40;;;24.10;39.90;;;;;;4972693;28;20470;-66
2022/08/08 09:01:35;;;;;;;5.23;4.93;;;24.10;39.90;;;;;;4969790;28;20470;-63
2022/08/08 09:04:07;;;;;;;4.80;4.50;;;24.10;40.00;;;;;;4971685;28;20504;-62
2022/08/08 09:06:41;;;;;;;5.03;4.67;;;24.10;40.00;;;;;;4973595;28;20465;-63
2022/08/08 09:09:25;;;;;;;5.23;4.87;;;24.10;40.00;;;;;;4979215;28;21086;-60
2022/08/08 09:11:53;;;;;;;5.30;4.90;;;24.10;40.10;;;;;;5002515;28;20449;-60
2022/08/08 09:14:23;;;;;;;6.50;4.70;;;24.10;40.10;;;;;;4995576;28;20481;-62
2022/08/08 09:16:53;;;;;;;5.60;5.10;;;24.10;40.10;;;;;;4987962;28;20828;-63
2022/08/08 09:19:18;;;;;;;5.27;4.87;;;24.10;40.10;;;;;;4993044;28;20469;-64
2022/08/08 09:21:46;;;;;;;5.30;4.93;;;24.10;40.10;;;;;;4996469;28;20479;-66
2022/08/08 09:24:13;;;;;;;4.87;4.57;;;24.10;40.10;;;;;;4994742;28;20239;-61
2022/08/08 09:27:01;;;;;;;5.03;4.73;;;24.10;40.20;;;;;;4994794;28;22352;-60
2022/08/08 09:29:31;;;;;;;5.50;5.10;;;24.10;40.20;;;;;;4996782;28;20477;-62
2022/08/08 09:32:07;;;;;;;4.90;4.70;;;24.10;40.60;;;;;;5005844;28;20471;-60
2022/08/08 09:34:34;;;;;;;4.97;4.67;;;24.10;40.10;;;;;;5000768;28;20990;-61
2022/08/08 09:37:03;;;;;;;5.10;4.70;;;24.10;40.20;;;;;;4993305;28;21056;-61
2022/08/08 09:39:41;;;;;;;4.43;4.13;;;24.10;41.00;;;;;;4993595;28;20591;-64
2022/08/08 09:42:11;;;;;;;5.27;4.97;;;24.00;40.20;;;;;;5001528;28;21010;-64
2022/08/08 09:44:42;;;;;;;4.50;4.20;;;24.10;40.30;;;;;;4991175;28;21180;-65
2022/08/08 09:47:08;;;;;;;5.00;4.63;;;24.00;40.20;;;;;;4996173;28;20464;-59
2022/08/08 09:49:36;;;;;;;4.80;4.50;;;24.00;40.20;;;;;;4991785;28;22460;-59
2022/08/08 09:52:03;;;;;;;5.23;4.93;;;24.00;40.20;;;;;;4991020;28;20223;-63
2022/08/08 09:54:41;;;;;;;5.43;5.10;;;24.00;40.20;;;;;;5009645;28;20464;-64
2022/08/08 09:57:10;;;;;;;5.03;4.70;;;24.00;40.20;;;;;;4997580;28;21083;-62
2022/08/08 09:59:39;;;;;;;5.00;4.70;;;24.00;40.20;;;;;;4992420;28;22407;-61
2022/08/08 10:02:10;;;;;;;5.23;4.83;;;24.00;40.20;;;;;;4989816;28;20521;-65
2022/08/08 10:04:38;;;;;;;4.93;4.63;;;24.00;40.30;;;;;;4987186;28;20472;-65
2022/08/08 10:07:03;;;;;;;5.10;4.80;;;24.00;41.10;;;;;;5016626;28;20460;-60
2022/08/08 10:09:32;;;;;;;5.07;4.77;;;24.00;40.80;;;;;;4988995;28;21179;-63
2022/08/08 10:12:00;;;;;;;4.80;4.50;;;24.00;40.20;;;;;;4990600;28;20254;-66
2022/08/08 10:14:37;;;;;;;5.40;5.10;;;24.00;40.30;;;;;;4982635;28;21035;-64
2022/08/08 10:17:08;;;;;;;5.10;4.60;;;24.00;40.30;;;;;;4991982;28;20463;-64
2022/08/08 10:19:40;;;;;;;5.30;4.90;;;24.00;40.30;;;;;;4989577;28;20456;-64
2022/08/08 10:22:07;;;;;;;5.33;4.93;;;24.00;40.30;;;;;;5000177;28;20468;-60
2022/08/08 10:24:34;;;;;;;5.13;4.83;;;24.00;40.30;;;;;;4985478;28;20515;-64
2022/08/08 10:27:05;;;;;;;8.60;4.97;;;24.00;40.30;;;;;;4991864;28;20937;-59
2022/08/08 10:29:48;;;;;;;66.93;16.30;;;24.00;40.40;;;;;;4986262;28;20465;-67
2022/08/08 10:32:36;;;;;;;86.03;22.87;;;24.00;40.40;;;;;;4996208;28;20457;-59
2022/08/08 10:35:12;;;;;;;138.07;28.13;;;24.10;40.60;;;;;;4995421;28;21329;-61
2022/08/08 10:37:49;;;;;;;183.17;36.00;;;24.10;40.50;;;;;;4992226;28;20453;-59
2022/08/08 10:40:15;;;;;;;253.37;45.37;;;24.10;40.50;;;;;;4997623;28;20445;-66
2022/08/08 10:42:42;;;;;;;339.27;56.73;;;24.20;40.70;;;;;;5010570;28;20525;-60
2022/08/08 10:45:09;;;;;;;346.33;60.87;;;24.20;40.60;;;;;;5003067;28;20579;-60
2022/08/08 10:47:35;;;;;;;411.47;71.37;;;24.20;40.70;;;;;;4996287;28;20561;-60
2022/08/08 10:50:04;;;;;;;405.80;69.07;;;24.20;40.70;;;;;;4996376;28;20468;-62
2022/08/08 10:52:30;;;;;;;285.20;63.33;;;24.30;40.90;;;;;;5001714;28;20510;-63
2022/08/08 10:55:01;;;;;;;386.13;76.50;;;24.30;40.80;;;;;;4997957;28;20459;-63
2022/08/08 10:57:26;;;;;;;475.53;100.13;;;24.40;40.90;;;;;;4998901;28;21463;-63
2022/08/08 10:59:58;;;;;;;449.90;94.40;;;24.40;40.90;;;;;;5009643;28;20465;-62
2022/08/08 11:02:30;;;;;;;452.17;98.80;;;24.40;41.00;;;;;;4999750;28;20258;-64
2022/08/08 11:04:57;;;;;;;401.70;82.00;;;24.50;41.10;;;;;;4998644;28;20546;-70
2022/08/08 11:07:46;;;;;;;235.47;58.13;;;24.50;41.20;;;;;;5010863;28;20445;-62
2022/08/08 11:10:14;;;;;;;510.67;104.90;;;24.50;41.20;;;;;;5010930;28;21243;-65
2022/08/08 11:12:50;;;;;;;522.10;107.00;;;24.60;41.50;;;;;;4994829;28;20995;-66
2022/08/08 11:15:19;;;;;;;517.87;98.93;;;24.60;41.50;;;;;;5002572;28;20542;-71
2022/08/08 11:17:45;;;;;;;567.57;90.83;;;24.70;41.60;;;;;;4996173;28;20455;-68
2022/08/08 11:20:14;;;;;;;560.53;99.67;;;24.70;41.30;;;;;;4998398;28;20476;-62
2022/08/08 11:22:40;;;;;;;457.50;78.50;;;24.70;41.30;;;;;;4994942;28;20476;-62
2022/08/08 11:25:07;;;;;;;468.43;78.63;;;24.80;41.50;;;;;;4996496;28;20459;-63
2022/08/08 11:27:35;;;;;;;489.20;73.63;;;24.80;41.50;;;;;;4993905;28;20979;-67
2022/08/08 11:30:03;;;;;;;552.77;94.17;;;24.80;41.30;;;;;;5000950;28;20464;-65
2022/08/08 11:32:30;;;;;;;365.60;63.37;;;24.80;41.50;;;;;;4995833;28;20457;-64
2022/08/08 11:35:06;;;;;;;480.07;84.40;;;24.90;41.40;;;;;;4998850;28;20460;-64
2022/08/08 11:37:32;;;;;;;323.93;61.70;;;24.90;41.60;;;;;;5000447;28;20495;-67
2022/08/08 11:40:00;;;;;;;240.23;54.23;;;24.90;41.50;;;;;;4997694;28;20500;-69
2022/08/08 11:42:27;;;;;;;245.20;50.30;;;24.90;41.70;;;;;;4998836;28;21724;-65
2022/08/08 11:44:56;;;;;;;223.87;46.50;;;24.90;41.60;;;;;;5001863;28;20459;-65
2022/08/08 11:47:23;;;;;;;219.40;49.50;;;24.90;41.60;;;;;;5000454;28;20479;-68
2022/08/08 11:49:55;;;;;;;201.77;46.40;;;24.90;41.60;;;;;;4996380;28;20462;-63
2022/08/08 11:52:21;;;;;;;173.93;43.10;;;24.90;41.60;;;;;;4996858;28;20754;-64
2022/08/08 11:54:48;;;;;;;147.07;40.30;;;24.90;41.80;;;;;;4993641;28;20875;-69
2022/08/08 11:57:17;;;;;;;140.40;37.33;;;24.90;41.90;;;;;;4991516;28;21372;-65
2022/08/08 12:00:05;;;;;;;92.33;25.40;;;24.90;41.80;;;;;;5000185;28;20469;-66
2022/08/08 12:02:32;;;;;;;117.30;30.83;;;24.80;41.70;;;;;;4999816;28;20508;-67
2022/08/08 12:05:09;;;;;;;108.30;31.37;;;24.80;41.80;;;;;;4995757;28;20519;-61
2022/08/08 12:07:51;;;;;;;100.83;28.47;;;24.80;42.00;;;;;;4992347;28;20478;-60
2022/08/08 12:10:20;;;;;;;115.10;27.17;;;24.80;42.00;;;;;;4998156;28;20468;-60
2022/08/08 12:12:46;;;;;;;72.17;25.00;;;24.80;42.20;;;;;;4998206;28;20448;-60
2022/08/08 12:15:34;;;;;;;86.37;23.20;;;24.80;42.10;;;;;;4995658;28;20479;-61
2022/08/08 12:18:11;;;;;;;78.80;23.83;;;24.80;42.10;;;;;;4999440;28;20470;-62
2022/08/08 12:20:38;;;;;;;53.67;19.60;;;24.90;42.10;;;;;;5001817;28;21422;-62
2022/08/08 12:23:04;;;;;;;50.90;19.60;;;24.90;42.10;;;;;;5002922;28;20468;-68
2022/08/08 12:25:32;;;;;;;40.70;17.70;;;24.90;42.00;;;;;;4998972;28;20478;-63
2022/08/08 12:28:30;;;;;;;47.87;16.37;;;24.90;41.90;;;;;;4992940;28;22157;-60
2022/08/08 12:31:05;;;;;;;48.80;17.07;;;24.90;41.90;;;;;;4983121;28;20455;-60
2022/08/08 12:33:31;;;;;;;39.30;17.20;;;24.90;41.70;;;;;;4999330;28;20476;-68
2022/08/08 12:35:56;;;;;;;39.10;14.87;;;24.90;41.80;;;;;;5013939;28;20469;-60
2022/08/08 12:38:22;;;;;;;29.00;13.47;;;25.00;41.80;;;;;;4998083;28;20451;-60
2022/08/08 12:40:51;;;;;;;34.40;14.00;;;25.00;41.80;;;;;;5001676;28;20265;-68
2022/08/08 12:43:27;;;;;;;33.23;12.77;;;25.00;41.80;;;;;;4994246;28;20588;-68
2022/08/08 12:45:53;;;;;;;21.53;11.90;;;25.00;42.50;;;;;;4998670;28;20464;-60
2022/08/08 12:48:20;;;;;;;22.30;9.93;;;25.00;41.70;;;;;;5003311;28;20463;-60
2022/08/08 12:50:53;;;;;;;25.23;11.63;;;24.90;41.60;;;;;;5004002;28;20332;-66
2022/08/08 12:53:30;;;;;;;25.87;11.60;;;24.90;41.60;;;;;;4997567;28;20578;-67
2022/08/08 12:56:04;;;;;;;26.07;10.87;;;24.90;41.70;;;;;;4998745;28;21356;-62
2022/08/08 12:58:47;;;;;;;19.00;9.00;;;24.90;41.70;;;;;;5016688;28;20560;-63
2022/08/08 13:01:13;;;;;;;16.57;8.43;;;24.90;41.60;;;;;;5000374;28;20573;-68
2022/08/08 13:03:49;;;;;;;20.37;9.30;;;24.90;41.70;;;;;;5001390;28;20978;-61
2022/08/08 13:06:19;;;;;;;22.00;10.17;;;24.90;41.70;;;;;;4997449;28;20214;-62
2022/08/08 13:08:50;;;;;;;24.83;8.20;;;24.90;41.70;;;;;;4991180;28;20802;-62
2022/08/08 13:11:21;;;;;;;23.00;8.77;;;24.90;41.80;;;;;;4998054;28;20463;-62
2022/08/08 13:14:11;;;;;;;22.50;8.10;;;24.90;41.70;;;;;;4996817;28;20496;-65
2022/08/08 13:16:38;;;;;;;18.80;8.47;;;24.90;41.80;;;;;;4995137;28;20976;-63